Terminal Aerodrome Forecast
Issued by NWS

Home | Current Version | Previous Version | Text Only | Print | Product List | Glossary On
Versions: 1 2 3 4 5 6 7 8 9 10 11 12 13 14 15 16 17 18 19 20 21 22 23 24 25 26 27 28 29 30 31 32 33
000
FTUS43 KMKX 240520
TAFENW
TAF
KENW 240520Z 2406/2506 VRB03KT 5SM BR OVC025
     FM240800 24004KT 3SM BR SCT008 OVC018
     FM241000 VRB03KT 1SM BR BKN008 OVC015
     FM241400 VRB03KT 2SM BR SCT015 BKN025
     FM241600 22007KT P6SM SCT030 SCT100
     FM250100 23004KT P6SM SCT040 BKN080
     FM250500 23003KT 5SM BR SCT010=

USA.gov is the U.S. government's official web portal to all federal, state and local government web resources and services.